createdAt,value
2022-10-12T00:01:42.095Z,21.65
2022-10-12T00:04:08.763Z,20.95
2022-10-12T00:06:35.362Z,22.80
2022-10-12T00:09:01.910Z,20.17
2022-10-12T00:11:29.445Z,21.20
2022-10-12T00:13:57.786Z,27.40
2022-10-12T00:16:25.907Z,18.75
2022-10-12T00:18:54.083Z,23.25
2022-10-12T00:21:22.056Z,22.23
2022-10-12T00:23:49.351Z,20.40
2022-10-12T00:26:21.491Z,21.92
2022-10-12T00:28:48.774Z,22.98
2022-10-12T00:31:20.552Z,23.10
2022-10-12T00:33:47.817Z,20.67
2022-10-12T00:36:21.929Z,23.55
2022-10-12T00:38:49.371Z,20.67
2022-10-12T00:41:17.716Z,18.17
2022-10-12T00:43:45.286Z,18.15
2022-10-12T00:46:29.344Z,18.63
2022-10-12T00:49:10.741Z,19.05
2022-10-12T00:51:39.866Z,17.77
2022-10-12T00:54:11.472Z,20.10
2022-10-12T00:56:41.572Z,18.92
2022-10-12T00:59:19.282Z,19.85
2022-10-12T01:01:45.987Z,22.17
2022-10-12T01:04:12.831Z,16.17
2022-10-12T01:06:39.462Z,22.38
2022-10-12T01:09:06.026Z,19.98
2022-10-12T01:11:32.594Z,21.50
2022-10-12T01:13:59.334Z,18.67
2022-10-12T01:16:33.192Z,18.35
2022-10-12T01:19:21.487Z,18.70
2022-10-12T01:22:01.311Z,20.90
2022-10-12T01:24:44.715Z,19.85
2022-10-12T01:27:33.733Z,20.83
2022-10-12T01:30:07.294Z,21.70
2022-10-12T01:32:38.092Z,22.08
2022-10-12T01:35:19.986Z,18.17
2022-10-12T01:37:56.981Z,17.73
2022-10-12T01:40:33.477Z,20.45
2022-10-12T01:43:00.456Z,18.90
2022-10-12T01:45:27.098Z,18.27
2022-10-12T01:47:55.198Z,22.17
2022-10-12T01:50:27.907Z,21.20
2022-10-12T01:53:19.139Z,17.88
2022-10-12T01:56:16.357Z,21.23
2022-10-12T01:58:45.884Z,22.02
2022-10-12T02:01:26.761Z,17.58
2022-10-12T02:04:20.018Z,21.90
2022-10-12T02:06:52.107Z,18.13
2022-10-12T02:09:25.569Z,20.95
2022-10-12T02:11:55.043Z,20.15
2022-10-12T02:14:25.891Z,20.27
2022-10-12T02:16:58.393Z,21.33
2022-10-12T02:19:28.318Z,18.63
2022-10-12T02:21:57.771Z,19.50
2022-10-12T02:26:54.517Z,20.60
2022-10-12T02:29:30.988Z,20.73
2022-10-12T02:32:04.683Z,25.00
2022-10-12T02:34:37.303Z,18.77
2022-10-12T02:37:13.307Z,23.55
2022-10-12T02:39:56.291Z,17.38
2022-10-12T02:42:46.645Z,17.60
2022-10-12T02:45:21.680Z,18.77
2022-10-12T02:47:51.959Z,19.40
2022-10-12T02:50:21.397Z,19.67
2022-10-12T02:55:16.977Z,16.30
2022-10-12T02:57:43.531Z,21.77
2022-10-12T03:00:11.997Z,19.83
2022-10-12T03:02:38.866Z,22.60
2022-10-12T03:05:05.973Z,18.23
2022-10-12T03:07:32.533Z,20.67
2022-10-12T03:09:59.147Z,23.58
2022-10-12T03:12:25.716Z,19.77
2022-10-12T03:14:52.235Z,18.85
2022-10-12T03:17:18.830Z,23.00
2022-10-12T03:19:45.454Z,20.75
2022-10-12T03:22:12.031Z,17.98
2022-10-12T03:24:38.615Z,21.58
2022-10-12T03:27:05.362Z,16.52
2022-10-12T03:29:31.998Z,19.25
2022-10-12T03:31:58.652Z,22.52
2022-10-12T03:34:25.414Z,20.50
2022-10-12T03:36:51.936Z,21.45
2022-10-12T03:39:18.529Z,20.52
2022-10-12T03:41:45.126Z,18.23
2022-10-12T03:44:11.827Z,20.05
2022-10-12T03:46:38.391Z,19.08
2022-10-12T03:49:04.979Z,17.65
2022-10-12T03:51:31.545Z,19.13
2022-10-12T03:53:58.158Z,16.88
2022-10-12T03:56:25.400Z,19.08
2022-10-12T03:58:51.950Z,20.75
2022-10-12T04:01:18.611Z,23.77
2022-10-12T04:03:45.302Z,16.95
2022-10-12T04:06:11.856Z,17.98
2022-10-12T04:08:40.228Z,17.30
2022-10-12T04:11:06.907Z,23.50
2022-10-12T04:13:33.442Z,18.48
2022-10-12T04:16:04.569Z,21.65
2022-10-12T04:18:31.201Z,16.05
2022-10-12T04:20:57.845Z,20.95
2022-10-12T04:23:24.342Z,22.85
2022-10-12T04:25:50.909Z,25.38
2022-10-12T04:28:17.553Z,35.92
2022-10-12T04:30:45.539Z,30.38
2022-10-12T04:33:12.409Z,23.98
2022-10-12T04:35:38.928Z,25.33
2022-10-12T04:38:05.532Z,23.27
2022-10-12T04:40:32.091Z,24.30
2022-10-12T04:42:58.776Z,24.70
2022-10-12T04:45:25.298Z,20.20
2022-10-12T04:47:51.891Z,20.60
2022-10-12T04:50:18.457Z,23.10
2022-10-12T04:52:45.051Z,22.77
2022-10-12T04:55:11.579Z,21.30
2022-10-12T04:57:38.707Z,21.38
2022-10-12T05:00:06.678Z,26.67
2022-10-12T05:02:33.534Z,18.85
2022-10-12T05:05:00.057Z,24.77
2022-10-12T05:07:26.643Z,21.00
2022-10-12T05:09:53.646Z,22.83
2022-10-12T05:12:20.255Z,27.02
2022-10-12T05:14:46.865Z,21.70
2022-10-12T05:17:13.407Z,22.55
2022-10-12T05:19:40.066Z,21.27
2022-10-12T05:22:06.669Z,26.15
2022-10-12T05:24:33.303Z,19.65
2022-10-12T05:26:59.891Z,20.58
2022-10-12T05:29:26.378Z,19.52
2022-10-12T05:31:53.362Z,17.83
2022-10-12T05:34:20.245Z,18.75
2022-10-12T05:36:46.874Z,18.48
2022-10-12T05:39:13.471Z,19.90
2022-10-12T05:41:40.040Z,18.92
2022-10-12T05:44:06.850Z,20.65
2022-10-12T05:46:33.415Z,21.23
2022-10-12T05:49:00.109Z,16.30
2022-10-12T05:51:28.873Z,19.20
2022-10-12T05:53:55.710Z,19.98
2022-10-12T05:56:22.341Z,19.17
2022-10-12T05:58:48.905Z,17.85
2022-10-12T06:01:15.997Z,17.83
2022-10-12T06:03:42.516Z,19.23
2022-10-12T06:06:09.683Z,18.50
2022-10-12T06:08:36.385Z,20.58
2022-10-12T06:11:03.228Z,19.75
2022-10-12T06:13:29.896Z,21.13
2022-10-12T06:15:56.530Z,21.73
2022-10-12T06:18:23.248Z,18.77
2022-10-12T06:21:14.860Z,17.90
2022-10-12T06:23:41.883Z,17.02
2022-10-12T06:26:08.537Z,20.30
2022-10-12T06:28:35.099Z,20.85
2022-10-12T06:31:01.715Z,18.13
2022-10-12T06:33:28.557Z,17.92
2022-10-12T06:35:56.091Z,22.10
2022-10-12T06:38:23.081Z,24.08
2022-10-12T06:40:49.600Z,20.75
2022-10-12T06:43:16.097Z,20.80
2022-10-12T06:45:42.714Z,21.40
2022-10-12T06:48:09.214Z,19.58
2022-10-12T06:50:36.115Z,18.83
2022-10-12T06:53:02.813Z,23.33
2022-10-12T06:55:29.661Z,18.58
2022-10-12T06:57:56.605Z,16.77
2022-10-12T07:00:23.309Z,19.80
2022-10-12T07:02:50.611Z,20.63
2022-10-12T07:05:17.511Z,19.35
2022-10-12T07:07:46.147Z,19.42
2022-10-12T07:10:12.666Z,19.00
2022-10-12T07:12:39.740Z,20.83
2022-10-12T07:15:07.508Z,17.23
2022-10-12T07:17:34.344Z,18.02
2022-10-12T07:20:00.854Z,21.63
2022-10-12T07:22:27.402Z,18.50
2022-10-12T07:24:53.909Z,18.63
2022-10-12T07:27:20.599Z,17.75
2022-10-12T07:29:48.058Z,17.73
2022-10-12T07:32:14.627Z,19.58
2022-10-12T07:34:42.431Z,19.55
2022-10-12T07:37:08.964Z,21.83
2022-10-12T07:39:35.548Z,17.23
2022-10-12T07:42:02.097Z,19.85
2022-10-12T07:44:30.426Z,17.02
2022-10-12T07:46:56.945Z,17.75
2022-10-12T07:49:23.459Z,18.65
2022-10-12T07:51:49.944Z,15.80
2022-10-12T07:54:21.101Z,24.05
2022-10-12T07:56:49.333Z,21.58
2022-10-12T07:59:15.940Z,21.63
2022-10-12T08:01:42.534Z,20.17
2022-10-12T08:04:10.317Z,25.25
2022-10-12T08:06:37.790Z,20.88
2022-10-12T08:09:04.646Z,18.67
2022-10-12T08:11:31.233Z,19.67
2022-10-12T08:13:57.856Z,21.38
2022-10-12T08:16:24.451Z,23.92
2022-10-12T08:18:51.739Z,20.55
2022-10-12T08:21:19.205Z,22.80
2022-10-12T08:23:46.166Z,20.25
2022-10-12T08:26:14.542Z,23.67
2022-10-12T08:28:41.987Z,22.27
2022-10-12T08:31:13.651Z,18.90
2022-10-12T08:33:40.236Z,21.80
2022-10-12T08:36:07.790Z,19.20
2022-10-12T08:38:36.583Z,25.90
2022-10-12T08:41:41.078Z,21.83
2022-10-12T08:44:22.624Z,20.05
2022-10-12T08:46:54.755Z,20.67
2022-10-12T08:49:25.853Z,23.60
2022-10-12T08:51:55.261Z,21.13
2022-10-12T08:56:57.004Z,24.27
2022-10-12T08:59:24.029Z,22.17
2022-10-12T09:01:57.469Z,23.67
2022-10-12T09:04:45.104Z,21.52
2022-10-12T09:07:30.731Z,21.35
2022-10-12T09:10:18.923Z,25.77
2022-10-12T09:13:32.035Z,23.70
2022-10-12T09:16:04.963Z,22.77
2022-10-12T09:18:44.659Z,22.45
2022-10-12T09:21:17.898Z,18.95
2022-10-12T09:23:44.813Z,21.00
2022-10-12T09:26:15.538Z,22.65
2022-10-12T09:28:54.047Z,23.33
2022-10-12T09:31:32.783Z,26.10
2022-10-12T09:34:03.953Z,21.67
2022-10-12T09:36:41.457Z,21.48
2022-10-12T09:39:18.674Z,23.30
2022-10-12T09:41:48.419Z,24.15
2022-10-12T09:44:31.790Z,20.55
2022-10-12T09:47:03.754Z,25.80
2022-10-12T09:49:47.814Z,24.73
2022-10-12T09:52:17.441Z,24.27
2022-10-12T09:54:54.276Z,23.48
2022-10-12T09:57:24.754Z,26.95
2022-10-12T09:59:51.878Z,26.63
2022-10-12T10:02:23.110Z,31.63
2022-10-12T10:04:50.652Z,27.55
2022-10-12T10:07:30.255Z,20.48
2022-10-12T10:10:10.186Z,22.02
2022-10-12T10:12:52.107Z,23.70
2022-10-12T10:15:28.397Z,28.15
2022-10-12T10:17:59.699Z,20.48
2022-10-12T10:20:50.991Z,17.50
2022-10-12T10:23:25.619Z,24.50
2022-10-12T10:28:50.795Z,22.27
2022-10-12T10:31:25.670Z,19.02
2022-10-12T10:34:07.435Z,18.08
2022-10-12T10:36:44.375Z,20.42
2022-10-12T10:39:27.093Z,19.23
2022-10-12T10:41:56.104Z,19.55
2022-10-12T10:44:33.911Z,16.83
2022-10-12T10:47:09.659Z,21.38
2022-10-12T10:49:45.611Z,17.45
2022-10-12T10:52:20.715Z,21.35
2022-10-12T10:54:49.528Z,22.17
2022-10-12T10:57:23.325Z,20.27
2022-10-12T11:00:37.498Z,20.73
2022-10-12T11:02:53.788Z,24.15
2022-10-12T11:05:29.162Z,23.40
2022-10-12T11:07:58.577Z,20.60
2022-10-12T11:10:28.432Z,21.02
2022-10-12T11:13:06.130Z,21.90
2022-10-12T11:15:46.952Z,21.52
2022-10-12T11:18:42.288Z,19.13
2022-10-12T11:21:15.518Z,24.45
2022-10-12T11:24:05.323Z,19.15
2022-10-12T11:26:41.243Z,18.65
2022-10-12T11:29:13.702Z,16.02
2022-10-12T11:31:47.085Z,17.02
2022-10-12T11:34:18.549Z,20.35
2022-10-12T11:37:14.330Z,17.25
2022-10-12T11:39:40.744Z,20.88
2022-10-12T11:42:21.767Z,22.23
2022-10-12T11:44:50.088Z,17.85
2022-10-12T11:47:26.655Z,19.83
2022-10-12T11:50:06.680Z,16.48
2022-10-12T11:52:45.674Z,17.40
2022-10-12T11:55:23.216Z,21.75
2022-10-12T11:57:51.476Z,20.75
2022-10-12T12:00:22.424Z,20.98
2022-10-12T12:03:24.896Z,21.52
2022-10-12T12:05:51.450Z,18.65
2022-10-12T12:08:43.869Z,19.95
2022-10-12T12:11:26.362Z,17.30
2022-10-12T12:14:20.969Z,18.30
2022-10-12T12:16:52.018Z,19.95
2022-10-12T12:19:33.633Z,23.77
2022-10-12T12:22:15.297Z,17.63
2022-10-12T12:24:53.357Z,16.83
2022-10-12T12:27:33.983Z,17.52
2022-10-12T12:30:02.600Z,16.00
2022-10-12T12:32:43.577Z,20.42
2022-10-12T12:35:26.970Z,19.38
2022-10-12T12:38:23.599Z,17.67
2022-10-12T12:41:01.543Z,17.60
2022-10-12T12:43:30.943Z,17.17
2022-10-12T12:46:05.375Z,20.15
2022-10-12T12:48:44.564Z,14.48
2022-10-12T12:51:31.713Z,16.02
2022-10-12T12:54:06.574Z,18.75
2022-10-12T12:56:32.973Z,16.50
2022-10-12T12:59:37.849Z,16.50
2022-10-12T13:02:26.370Z,18.23
2022-10-12T13:05:12.711Z,14.87
2022-10-12T13:08:04.407Z,18.83
2022-10-12T13:10:58.732Z,19.02
2022-10-12T13:13:50.079Z,20.85
2022-10-12T13:17:23.543Z,17.48
2022-10-12T13:19:18.719Z,16.38
2022-10-12T13:21:55.551Z,20.27
2022-10-12T13:24:27.541Z,17.45
2022-10-12T13:26:58.535Z,15.68
2022-10-12T13:29:46.005Z,12.95
2022-10-12T13:32:35.644Z,18.35
2022-10-12T13:35:10.901Z,20.08
2022-10-12T13:37:37.651Z,15.20
2022-10-12T13:40:07.103Z,12.85
2022-10-12T13:42:35.835Z,16.10
2022-10-12T13:45:07.363Z,18.55
2022-10-12T13:47:34.386Z,17.20
2022-10-12T13:50:01.337Z,19.30
2022-10-12T13:52:32.805Z,14.60
2022-10-12T13:55:00.758Z,17.52
2022-10-12T13:57:40.551Z,18.50
2022-10-12T14:00:20.567Z,17.23
2022-10-12T14:03:06.219Z,16.25
2022-10-12T14:05:33.903Z,15.98
2022-10-12T14:08:06.856Z,18.73
2022-10-12T14:10:36.211Z,20.50
2022-10-12T14:13:04.935Z,16.73
2022-10-12T14:15:40.332Z,14.35
2022-10-12T14:18:42.432Z,15.88
2022-10-12T14:21:17.971Z,14.00
2022-10-12T14:23:48.786Z,17.40
2022-10-12T14:26:24.535Z,15.57
2022-10-12T14:28:51.614Z,16.88
2022-10-12T14:31:18.328Z,15.90
2022-10-12T14:33:44.921Z,19.67
2022-10-12T14:36:20.334Z,18.23
2022-10-12T14:38:48.372Z,18.10
2022-10-12T14:41:31.975Z,17.08
2022-10-12T14:44:12.594Z,21.45
2022-10-12T14:46:43.822Z,15.10
2022-10-12T14:49:33.416Z,25.63
2022-10-12T14:52:00.504Z,13.30
2022-10-12T14:54:27.232Z,12.30
2022-10-12T14:56:53.901Z,19.25
2022-10-12T14:59:23.207Z,14.85
2022-10-12T15:01:51.464Z,20.73
2022-10-12T15:04:18.289Z,19.65
2022-10-12T15:06:49.816Z,16.27
2022-10-12T15:09:17.364Z,15.52
2022-10-12T15:11:43.911Z,18.00
2022-10-12T15:14:11.321Z,15.65
2022-10-12T15:16:38.033Z,13.60
2022-10-12T15:19:05.718Z,16.85
2022-10-12T15:21:32.318Z,16.38
2022-10-12T15:23:58.904Z,12.43
2022-10-12T15:26:26.681Z,17.00
2022-10-12T15:28:53.318Z,15.55
2022-10-12T15:31:20.994Z,13.70
2022-10-12T15:33:47.737Z,16.00
2022-10-12T15:36:14.426Z,14.20
2022-10-12T15:38:41.086Z,15.50
2022-10-12T15:41:16.434Z,16.63
2022-10-12T15:43:42.968Z,12.23
2022-10-12T15:46:11.480Z,19.60
2022-10-12T15:48:39.995Z,12.70
2022-10-12T15:51:22.995Z,15.38
2022-10-12T15:53:52.866Z,15.40
2022-10-12T15:56:20.402Z,15.80
2022-10-12T15:58:47.709Z,16.95
2022-10-12T16:01:17.406Z,15.43
2022-10-12T16:03:44.676Z,15.38
2022-10-12T16:06:11.299Z,16.10
2022-10-12T16:08:38.605Z,17.38
2022-10-12T16:11:07.809Z,14.25
2022-10-12T16:13:36.487Z,14.10
2022-10-12T16:16:06.616Z,12.98
2022-10-12T16:18:33.462Z,20.15
2022-10-12T16:21:00.142Z,16.55
2022-10-12T16:23:29.976Z,16.73
2022-10-12T16:25:57.283Z,13.98
2022-10-12T16:28:25.701Z,15.68
2022-10-12T16:30:53.093Z,15.35
2022-10-12T16:33:19.885Z,15.32
2022-10-12T16:35:46.592Z,14.38
2022-10-12T16:38:14.752Z,14.35
2022-10-12T16:40:42.675Z,12.77
2022-10-12T16:43:09.860Z,16.60
2022-10-12T16:45:36.559Z,16.95
2022-10-12T16:48:03.778Z,15.00
2022-10-12T16:50:30.307Z,16.35
2022-10-12T16:52:56.952Z,14.02
2022-10-12T16:55:23.884Z,20.90
2022-10-12T16:57:50.773Z,20.77
2022-10-12T17:00:20.117Z,19.45
2022-10-12T17:02:47.541Z,18.42
2022-10-12T17:05:14.214Z,17.55
2022-10-12T17:07:40.771Z,22.83
2022-10-12T17:10:07.675Z,20.25
2022-10-12T17:12:34.853Z,18.55
2022-10-12T17:15:01.593Z,16.35
2022-10-12T17:17:28.209Z,20.08
2022-10-12T17:19:54.893Z,19.77
2022-10-12T17:22:21.714Z,20.00
2022-10-12T17:24:48.638Z,15.07
2022-10-12T17:27:16.763Z,17.40
2022-10-12T17:29:43.839Z,17.70
2022-10-12T17:32:11.330Z,18.20
2022-10-12T17:34:42.188Z,20.48
2022-10-12T17:37:13.290Z,18.17
2022-10-12T17:39:45.747Z,17.88
2022-10-12T17:42:12.477Z,18.58
2022-10-12T17:44:39.136Z,16.98
2022-10-12T17:47:06.029Z,22.67
2022-10-12T17:49:32.558Z,17.00
2022-10-12T17:51:59.115Z,19.50
2022-10-12T17:54:26.637Z,19.10
2022-10-12T17:56:54.990Z,16.88
2022-10-12T17:59:22.256Z,19.98
2022-10-12T18:01:54.187Z,19.73
2022-10-12T18:04:21.794Z,16.45
2022-10-12T18:06:48.665Z,22.40
2022-10-12T18:09:15.347Z,19.60
2022-10-12T18:11:42.067Z,19.08
2022-10-12T18:14:10.278Z,17.80
2022-10-12T18:16:37.966Z,22.65
2022-10-12T18:19:06.171Z,17.42
2022-10-12T18:21:33.897Z,22.45
2022-10-12T18:24:03.528Z,21.15
2022-10-12T18:26:30.569Z,23.67
2022-10-12T18:29:00.981Z,19.92
2022-10-12T18:31:29.119Z,16.92
2022-10-12T18:33:56.398Z,19.48
2022-10-12T18:36:23.267Z,20.02
2022-10-12T18:38:50.250Z,18.75
2022-10-12T18:41:22.372Z,18.35
2022-10-12T18:43:55.150Z,19.80
2022-10-12T18:46:22.228Z,18.08
2022-10-12T18:48:49.336Z,21.67
2022-10-12T18:51:20.782Z,21.30
2022-10-12T18:53:48.004Z,22.05
2022-10-12T18:56:14.815Z,20.63
2022-10-12T18:58:42.138Z,21.30
2022-10-12T19:01:15.891Z,20.63
2022-10-12T19:03:46.256Z,19.23
2022-10-12T19:06:16.529Z,20.17
2022-10-12T19:08:43.662Z,19.73
2022-10-12T19:11:12.051Z,24.30
2022-10-12T19:13:39.386Z,20.88
2022-10-12T19:16:08.190Z,20.88
2022-10-12T19:18:35.358Z,21.30
2022-10-12T19:21:03.729Z,22.60
2022-10-12T19:23:30.275Z,21.50
2022-10-12T19:25:57.301Z,19.30
2022-10-12T19:28:24.199Z,22.95
2022-10-12T19:30:50.972Z,23.52
2022-10-12T19:33:17.620Z,21.52
2022-10-12T19:35:44.230Z,21.73
2022-10-12T19:38:10.793Z,18.58
2022-10-12T19:40:37.919Z,23.25
2022-10-12T19:43:06.755Z,19.23
2022-10-12T19:45:37.847Z,21.25
2022-10-12T19:48:04.988Z,23.00
2022-10-12T19:50:32.072Z,24.13
2022-10-12T19:52:59.046Z,22.23
2022-10-12T19:55:25.959Z,22.33
2022-10-12T19:57:52.583Z,19.10
2022-10-12T20:00:19.505Z,24.92
2022-10-12T20:02:46.135Z,25.35
2022-10-12T20:05:12.865Z,20.52
2022-10-12T20:07:39.438Z,20.10
2022-10-12T20:10:07.287Z,25.15
2022-10-12T20:12:34.342Z,24.05
2022-10-12T20:15:01.114Z,20.90
2022-10-12T20:17:27.800Z,26.35
2022-10-12T20:19:55.411Z,26.45
2022-10-12T20:22:23.002Z,23.75
2022-10-12T20:24:49.613Z,23.83
2022-10-12T20:27:16.176Z,24.38
2022-10-12T20:29:43.088Z,25.50
2022-10-12T20:32:09.679Z,30.80
2022-10-12T20:34:36.276Z,28.85
2022-10-12T20:37:03.101Z,23.50
2022-10-12T20:39:29.644Z,25.15
2022-10-12T20:41:56.219Z,30.40
2022-10-12T20:44:23.077Z,26.65
2022-10-12T20:46:50.266Z,25.70
2022-10-12T20:49:19.139Z,26.63
2022-10-12T20:51:45.779Z,28.45
2022-10-12T20:54:18.586Z,26.95
2022-10-12T20:56:47.577Z,24.83
2022-10-12T20:59:14.203Z,25.58
2022-10-12T21:01:40.890Z,29.83
2022-10-12T21:04:07.547Z,26.10
2022-10-12T21:06:34.750Z,23.85
2022-10-12T21:09:01.354Z,25.38
2022-10-12T21:11:28.079Z,31.17
2022-10-12T21:13:55.021Z,25.42
2022-10-12T21:16:22.062Z,28.30
2022-10-12T21:18:48.729Z,27.92
2022-10-12T21:21:17.949Z,29.40
2022-10-12T21:24:00.362Z,30.80
2022-10-12T21:26:29.102Z,28.00
2022-10-12T21:28:58.348Z,26.05
2022-10-12T21:31:29.487Z,28.85
2022-10-12T21:34:00.095Z,29.75
2022-10-12T21:36:27.452Z,25.30
2022-10-12T21:38:54.703Z,25.48
2022-10-12T21:41:25.505Z,27.60
2022-10-12T21:43:52.695Z,25.10
2022-10-12T21:46:22.496Z,26.40
2022-10-12T21:48:49.740Z,24.50
2022-10-12T21:51:17.234Z,27.38
2022-10-12T21:53:44.089Z,27.10
2022-10-12T21:56:16.513Z,26.50
2022-10-12T21:58:43.987Z,24.63
2022-10-12T22:01:13.911Z,23.85
2022-10-12T22:03:41.635Z,22.98
2022-10-12T22:06:15.850Z,21.70
2022-10-12T22:08:43.508Z,24.95
2022-10-12T22:11:12.404Z,27.83
2022-10-12T22:13:39.072Z,27.80
2022-10-12T22:16:10.498Z,25.15
2022-10-12T22:18:37.154Z,26.45
2022-10-12T22:21:05.805Z,22.60
2022-10-12T22:23:32.629Z,23.53
2022-10-12T22:26:06.402Z,30.63
2022-10-12T22:28:33.791Z,33.40
2022-10-12T22:31:00.894Z,25.45
2022-10-12T22:33:27.543Z,26.85
2022-10-12T22:35:59.957Z,25.00
2022-10-12T22:38:27.927Z,25.30
2022-10-12T22:41:05.377Z,26.98
2022-10-12T22:43:33.618Z,26.40
2022-10-12T22:46:01.143Z,27.35
2022-10-12T22:48:28.017Z,25.25
2022-10-12T22:50:55.121Z,29.73
2022-10-12T22:53:24.050Z,25.67
2022-10-12T22:56:01.404Z,28.37
2022-10-12T22:58:29.490Z,29.23
2022-10-12T23:01:04.573Z,27.05
2022-10-12T23:03:32.087Z,24.77
2022-10-12T23:05:58.874Z,25.65
2022-10-12T23:08:26.999Z,30.63
2022-10-12T23:10:58.210Z,28.25
2022-10-12T23:13:24.743Z,27.77
2022-10-12T23:15:51.609Z,28.38
2022-10-12T23:18:18.245Z,31.50
2022-10-12T23:20:44.817Z,28.65
2022-10-12T23:23:11.349Z,25.17
2022-10-12T23:25:37.994Z,28.73
2022-10-12T23:28:04.553Z,28.80
2022-10-12T23:30:31.347Z,29.10
2022-10-12T23:32:57.899Z,24.73
2022-10-12T23:35:24.718Z,26.23
2022-10-12T23:37:51.372Z,34.25
2022-10-12T23:40:18.715Z,25.52
2022-10-12T23:42:45.326Z,28.65
2022-10-12T23:45:11.876Z,23.65
2022-10-12T23:47:38.734Z,24.75
2022-10-12T23:50:05.778Z,28.88
2022-10-12T23:52:32.373Z,28.05
2022-10-12T23:54:58.927Z,25.52
2022-10-12T23:57:45.763Z,26.65
